createdAt,value
2023-02-15T00:01:21.212Z,16.42
2023-02-15T00:04:25.488Z,16.41
2023-02-15T00:07:26.946Z,16.39
2023-02-15T00:10:28.443Z,16.35
2023-02-15T00:13:29.932Z,16.36
2023-02-15T00:16:31.551Z,16.33
2023-02-15T00:19:33.065Z,16.30
2023-02-15T00:22:34.600Z,16.28
2023-02-15T00:25:36.126Z,16.27
2023-02-15T00:28:37.749Z,16.25
2023-02-15T00:31:39.406Z,16.24
2023-02-15T00:34:40.939Z,16.22
2023-02-15T00:37:42.420Z,16.21
2023-02-15T00:40:43.909Z,16.19
2023-02-15T00:43:45.408Z,16.18
2023-02-15T00:46:46.890Z,16.17
2023-02-15T00:49:48.418Z,16.17
2023-02-15T00:52:49.938Z,16.17
2023-02-15T00:55:51.503Z,16.18
2023-02-15T00:58:53.047Z,16.17
2023-02-15T01:01:54.574Z,16.17
2023-02-15T01:04:56.125Z,16.18
2023-02-15T01:07:58.222Z,16.18
2023-02-15T01:11:07.694Z,16.20
2023-02-15T01:14:09.235Z,16.19
2023-02-15T01:17:14.313Z,16.18
2023-02-15T01:20:16.157Z,16.17
2023-02-15T01:23:17.724Z,16.17
2023-02-15T01:26:21.992Z,16.15
2023-02-15T01:29:23.558Z,16.16
2023-02-15T01:32:25.094Z,16.15
2023-02-15T01:35:28.468Z,16.16
2023-02-15T01:38:29.931Z,16.13
2023-02-15T01:41:31.839Z,16.13
2023-02-15T01:44:49.566Z,16.13
2023-02-15T01:48:02.814Z,16.13
2023-02-15T01:51:04.706Z,16.11
2023-02-15T01:54:32.362Z,16.10
2023-02-15T01:57:34.316Z,16.09
2023-02-15T02:00:36.268Z,16.08
2023-02-15T02:03:56.686Z,16.07
2023-02-15T02:07:00.413Z,16.05
2023-02-15T02:10:03.436Z,16.05
2023-02-15T02:13:08.402Z,16.04
2023-02-15T02:16:27.559Z,16.02
2023-02-15T02:19:41.373Z,16.02
2023-02-15T02:22:57.969Z,16.01
2023-02-15T02:26:18.254Z,15.99
2023-02-15T02:29:58.769Z,15.99
2023-02-15T02:33:09.946Z,16.00
2023-02-15T02:36:12.298Z,15.99
2023-02-15T02:39:31.425Z,16.02
2023-02-15T02:42:48.654Z,16.03
2023-02-15T02:46:21.377Z,16.03
2023-02-15T02:49:35.252Z,16.04
2023-02-15T02:52:43.972Z,16.06
2023-02-15T02:56:06.968Z,16.06
2023-02-15T02:59:20.856Z,16.05
2023-02-15T03:02:27.445Z,16.05
2023-02-15T03:05:31.433Z,16.05
2023-02-15T03:08:38.961Z,16.05
2023-02-15T03:11:41.762Z,16.04
2023-02-15T03:14:46.637Z,16.04
2023-02-15T03:17:56.496Z,16.04
2023-02-15T03:21:02.406Z,16.03
2023-02-15T03:24:21.906Z,16.02
2023-02-15T03:27:27.619Z,16.00
2023-02-15T03:30:32.130Z,16.00
2023-02-15T03:33:41.357Z,15.99
2023-02-15T03:36:48.290Z,15.99
2023-02-15T03:40:28.589Z,15.99
2023-02-15T03:43:45.791Z,15.96
2023-02-15T03:46:57.217Z,15.95
2023-02-15T03:49:58.682Z,15.94
2023-02-15T03:53:03.145Z,15.94
2023-02-15T03:56:04.762Z,15.92
2023-02-15T03:59:24.977Z,15.91
2023-02-15T04:02:32.430Z,15.92
2023-02-15T04:05:33.968Z,15.91
2023-02-15T04:08:54.064Z,15.91
2023-02-15T04:11:58.358Z,15.94
2023-02-15T04:15:18.416Z,15.96
2023-02-15T04:18:19.907Z,15.99
2023-02-15T04:21:41.806Z,16.01
2023-02-15T04:25:01.903Z,16.04
2023-02-15T04:28:03.657Z,16.07
2023-02-15T04:31:05.117Z,16.11
2023-02-15T04:34:06.614Z,16.15
2023-02-15T04:37:08.118Z,16.17
2023-02-15T04:40:13.039Z,16.21
2023-02-15T04:43:14.515Z,16.22
2023-02-15T04:46:16.040Z,16.24
2023-02-15T04:49:17.551Z,16.26
2023-02-15T04:52:19.172Z,16.28
2023-02-15T04:55:20.851Z,16.29
2023-02-15T04:58:22.330Z,16.28
2023-02-15T05:01:23.830Z,16.28
2023-02-15T05:04:25.340Z,16.29
2023-02-15T05:07:26.814Z,16.29
2023-02-15T05:10:28.295Z,16.29
2023-02-15T05:13:29.850Z,16.26
2023-02-15T05:16:34.461Z,16.27
2023-02-15T05:19:35.972Z,16.25
2023-02-15T05:22:37.446Z,16.24
2023-02-15T05:25:57.425Z,16.23
2023-02-15T05:28:58.941Z,16.22
2023-02-15T05:32:00.575Z,16.19
2023-02-15T05:35:02.153Z,16.19
2023-02-15T05:38:03.641Z,16.17
2023-02-15T05:41:09.913Z,16.17
2023-02-15T05:44:11.427Z,16.13
2023-02-15T05:47:12.875Z,16.12
2023-02-15T05:50:14.344Z,16.11
2023-02-15T05:53:15.835Z,16.09
2023-02-15T05:56:17.354Z,16.09
2023-02-15T05:59:18.822Z,16.08
2023-02-15T06:02:20.310Z,16.08
2023-02-15T06:05:21.895Z,16.11
2023-02-15T06:08:23.440Z,16.11
2023-02-15T06:11:25.000Z,16.14
2023-02-15T06:14:26.600Z,16.16
2023-02-15T06:17:28.069Z,16.17
2023-02-15T06:20:29.597Z,16.19
2023-02-15T06:23:31.110Z,16.22
2023-02-15T06:26:32.638Z,16.23
2023-02-15T06:29:34.103Z,16.24
2023-02-15T06:32:35.666Z,16.26
2023-02-15T06:35:37.194Z,16.26
2023-02-15T06:38:38.835Z,16.27
2023-02-15T06:41:40.386Z,16.28
2023-02-15T06:44:41.910Z,16.28
2023-02-15T06:47:43.635Z,16.28
2023-02-15T06:50:45.116Z,16.27
2023-02-15T06:53:46.654Z,16.27
2023-02-15T06:56:48.162Z,16.25
2023-02-15T06:59:49.711Z,16.24
2023-02-15T07:02:58.817Z,16.24
2023-02-15T07:06:02.077Z,16.23
2023-02-15T07:09:03.874Z,16.21
2023-02-15T07:12:24.537Z,16.21
2023-02-15T07:15:26.064Z,16.18
2023-02-15T07:18:27.512Z,16.17
2023-02-15T07:21:29.052Z,16.15
2023-02-15T07:24:30.540Z,16.14
2023-02-15T07:27:32.891Z,16.14
2023-02-15T07:30:34.507Z,16.11
2023-02-15T07:33:36.266Z,16.12
2023-02-15T07:36:37.987Z,16.08
2023-02-15T07:39:39.460Z,16.06
2023-02-15T07:42:40.927Z,16.04
2023-02-15T07:45:42.491Z,16.04
2023-02-15T07:48:45.104Z,16.00
2023-02-15T07:51:47.076Z,15.98
2023-02-15T07:54:48.609Z,15.97
2023-02-15T07:57:51.487Z,15.96
2023-02-15T08:00:59.164Z,15.95
2023-02-15T08:04:00.791Z,15.94
2023-02-15T08:07:02.324Z,15.92
2023-02-15T08:10:03.949Z,15.90
2023-02-15T08:13:05.445Z,15.92
2023-02-15T08:16:07.087Z,15.91
2023-02-15T08:19:23.510Z,15.91
2023-02-15T08:22:25.490Z,15.90
2023-02-15T08:25:26.995Z,15.88
2023-02-15T08:28:28.463Z,15.90
2023-02-15T08:31:30.488Z,15.90
2023-02-15T08:34:35.212Z,15.92
2023-02-15T08:37:36.758Z,15.92
2023-02-15T08:40:38.987Z,15.91
2023-02-15T08:43:41.129Z,15.94
2023-02-15T08:46:44.929Z,15.94
2023-02-15T08:49:46.371Z,15.93
2023-02-15T08:52:47.889Z,15.92
2023-02-15T08:55:59.565Z,15.95
2023-02-15T08:59:03.651Z,15.93
2023-02-15T09:02:05.137Z,15.92
2023-02-15T09:05:07.137Z,15.94
2023-02-15T09:08:08.624Z,15.94
2023-02-15T09:11:13.084Z,15.92
2023-02-15T09:14:17.984Z,15.92
2023-02-15T09:17:19.465Z,15.91
2023-02-15T09:20:21.012Z,15.90
2023-02-15T09:23:27.298Z,15.90
2023-02-15T09:26:30.335Z,15.90
2023-02-15T09:29:31.807Z,15.88
2023-02-15T09:32:33.274Z,15.88
2023-02-15T09:35:34.789Z,15.86
2023-02-15T09:38:36.277Z,15.88
2023-02-15T09:41:52.787Z,15.87
2023-02-15T09:45:04.797Z,15.88
2023-02-15T09:48:23.494Z,15.89
2023-02-15T09:51:52.097Z,15.87
2023-02-15T09:54:59.563Z,15.85
2023-02-15T09:58:03.956Z,15.88
2023-02-15T10:01:22.857Z,15.84
2023-02-15T10:04:45.396Z,15.87
2023-02-15T10:07:52.842Z,15.88
2023-02-15T10:11:36.023Z,15.90
2023-02-15T10:14:59.132Z,15.92
2023-02-15T10:18:24.852Z,15.94
2023-02-15T10:21:47.624Z,15.97
2023-02-15T10:25:05.715Z,15.96
2023-02-15T10:28:19.281Z,16.00
2023-02-15T10:31:39.736Z,16.00
2023-02-15T10:34:51.215Z,16.01
2023-02-15T10:38:04.935Z,16.01
2023-02-15T10:41:15.372Z,16.02
2023-02-15T10:44:35.742Z,16.02
2023-02-15T10:48:08.278Z,16.03
2023-02-15T10:51:36.971Z,16.02
2023-02-15T10:55:04.669Z,16.02
2023-02-15T10:58:26.531Z,16.02
2023-02-15T11:01:36.875Z,16.02
2023-02-15T11:04:47.044Z,16.01
2023-02-15T11:07:52.353Z,16.01
2023-02-15T11:11:06.200Z,16.00
2023-02-15T11:14:37.415Z,16.00
2023-02-15T11:17:45.018Z,15.99
2023-02-15T11:20:52.755Z,15.99
2023-02-15T11:23:54.883Z,15.97
2023-02-15T11:26:59.314Z,15.96
2023-02-15T11:30:11.559Z,15.97
2023-02-15T11:33:23.371Z,15.96
2023-02-15T11:36:34.308Z,15.95
2023-02-15T11:39:38.220Z,15.94
2023-02-15T11:42:41.564Z,15.94
2023-02-15T11:45:45.758Z,15.92
2023-02-15T11:48:47.413Z,15.91
2023-02-15T11:51:51.510Z,15.92
2023-02-15T11:54:54.167Z,15.92
2023-02-15T11:58:01.772Z,15.95
2023-02-15T12:01:15.281Z,15.96
2023-02-15T12:04:40.430Z,15.97
2023-02-15T12:07:47.760Z,15.98
2023-02-15T12:11:04.455Z,15.99
2023-02-15T12:14:09.176Z,16.00
2023-02-15T12:17:14.242Z,15.99
2023-02-15T12:20:15.667Z,15.97
2023-02-15T12:23:18.864Z,15.98
2023-02-15T12:26:27.878Z,15.98
2023-02-15T12:29:35.445Z,15.97
2023-02-15T12:32:49.847Z,15.98
2023-02-15T12:36:00.497Z,15.98
2023-02-15T12:39:18.591Z,15.98
2023-02-15T12:42:20.593Z,15.98
2023-02-15T12:45:26.945Z,15.98
2023-02-15T12:48:28.474Z,15.97
2023-02-15T12:51:29.994Z,15.97
2023-02-15T12:54:33.578Z,15.97
2023-02-15T12:57:35.076Z,15.96
2023-02-15T13:00:36.845Z,15.96
2023-02-15T13:03:52.157Z,15.97
2023-02-15T13:06:58.768Z,15.98
2023-02-15T13:10:00.289Z,15.97
2023-02-15T13:13:03.874Z,15.95
2023-02-15T13:16:12.125Z,15.96
2023-02-15T13:19:40.878Z,15.98
2023-02-15T13:22:47.509Z,15.96
2023-02-15T13:25:51.254Z,15.97
2023-02-15T13:28:57.177Z,15.96
2023-02-15T13:32:16.260Z,15.96
2023-02-15T13:35:19.690Z,15.95
2023-02-15T13:38:39.737Z,15.95
2023-02-15T13:42:06.811Z,15.97
2023-02-15T13:45:39.536Z,15.99
2023-02-15T13:49:25.581Z,16.01
2023-02-15T13:52:29.428Z,16.04
2023-02-15T13:55:36.881Z,16.05
2023-02-15T13:58:50.618Z,16.08
2023-02-15T14:01:57.794Z,16.11
2023-02-15T14:05:18.001Z,16.12
2023-02-15T14:08:38.279Z,16.17
2023-02-15T14:12:24.523Z,16.19
2023-02-15T14:15:41.875Z,16.21
2023-02-15T14:18:49.631Z,16.23
2023-02-15T14:21:51.133Z,16.23
2023-02-15T14:24:59.282Z,16.27
2023-02-15T14:28:23.370Z,16.27
2023-02-15T14:31:38.459Z,16.30
2023-02-15T14:34:52.280Z,16.30
2023-02-15T14:38:05.293Z,16.31
2023-02-15T14:41:42.980Z,16.31
2023-02-15T14:44:54.600Z,16.30
2023-02-15T14:48:18.931Z,16.31
2023-02-15T14:51:46.508Z,16.32
2023-02-15T14:54:48.007Z,16.30
2023-02-15T14:57:59.758Z,16.33
2023-02-15T15:01:11.290Z,16.33
2023-02-15T15:04:23.423Z,16.35
2023-02-15T15:07:38.359Z,16.34
2023-02-15T15:10:45.570Z,16.36
2023-02-15T15:14:01.048Z,16.35
2023-02-15T15:17:04.841Z,16.35
2023-02-15T15:20:35.287Z,16.36
2023-02-15T15:23:43.533Z,16.37
2023-02-15T15:26:49.963Z,16.36
2023-02-15T15:29:52.180Z,16.36
2023-02-15T15:32:56.838Z,16.37
2023-02-15T15:36:26.468Z,16.36
2023-02-15T15:39:52.594Z,16.36
2023-02-15T15:43:03.254Z,16.35
2023-02-15T15:46:22.350Z,16.36
2023-02-15T15:49:29.019Z,16.39
2023-02-15T15:52:32.588Z,16.43
2023-02-15T15:55:35.310Z,16.47
2023-02-15T15:58:42.732Z,16.52
2023-02-15T16:01:47.969Z,16.56
2023-02-15T16:04:49.440Z,16.59
2023-02-15T16:07:51.007Z,16.61
2023-02-15T16:10:52.452Z,16.62
2023-02-15T16:13:54.526Z,16.64
2023-02-15T16:17:02.531Z,16.66
2023-02-15T16:20:12.308Z,16.68
2023-02-15T16:23:32.404Z,16.70
2023-02-15T16:26:52.261Z,16.73
2023-02-15T16:29:53.728Z,16.76
2023-02-15T16:33:05.106Z,16.79
2023-02-15T16:36:10.763Z,16.79
2023-02-15T16:39:20.400Z,16.67
2023-02-15T16:42:23.002Z,16.50
2023-02-15T16:45:27.154Z,16.38
2023-02-15T16:48:28.682Z,16.37
2023-02-15T16:51:33.592Z,16.43
2023-02-15T16:54:36.359Z,16.49
2023-02-15T16:57:39.376Z,16.52
2023-02-15T17:00:44.080Z,16.55
2023-02-15T17:03:49.826Z,16.59
2023-02-15T17:07:06.695Z,16.60
2023-02-15T17:10:29.862Z,16.59
2023-02-15T17:13:31.591Z,16.59
2023-02-15T17:16:42.572Z,16.59
2023-02-15T17:19:50.103Z,16.59
2023-02-15T17:22:53.082Z,16.56
2023-02-15T17:25:55.178Z,16.56
2023-02-15T17:29:03.583Z,16.39
2023-02-15T17:32:13.583Z,16.19
2023-02-15T17:35:25.659Z,16.01
2023-02-15T17:38:27.192Z,15.82
2023-02-15T17:41:31.551Z,15.59
2023-02-15T17:44:33.005Z,15.35
2023-02-15T17:47:34.593Z,15.32
2023-02-15T17:50:36.274Z,15.37
2023-02-15T17:53:38.420Z,15.44
2023-02-15T17:56:39.914Z,15.50
2023-02-15T18:00:00.514Z,15.58
2023-02-15T18:03:20.860Z,15.66
2023-02-15T18:06:41.357Z,15.74
2023-02-15T18:10:01.620Z,15.81
2023-02-15T18:13:03.376Z,15.88
2023-02-15T18:16:04.985Z,15.92
2023-02-15T18:19:14.018Z,15.98
2023-02-15T18:22:17.683Z,16.03
2023-02-15T18:25:21.496Z,16.05
2023-02-15T18:28:22.930Z,16.07
2023-02-15T18:31:24.797Z,16.11
2023-02-15T18:34:39.878Z,16.15
2023-02-15T18:37:41.356Z,16.16
2023-02-15T18:40:42.807Z,16.20
2023-02-15T18:43:44.644Z,16.22
2023-02-15T18:46:46.136Z,16.24
2023-02-15T18:49:47.812Z,16.29
2023-02-15T18:52:51.400Z,16.30
2023-02-15T18:55:53.322Z,16.33
2023-02-15T18:58:54.748Z,16.33
2023-02-15T19:01:57.779Z,16.37
2023-02-15T19:04:59.202Z,16.36
2023-02-15T19:08:02.125Z,16.38
2023-02-15T19:11:04.035Z,16.40
2023-02-15T19:14:06.151Z,16.41
2023-02-15T19:17:15.881Z,16.42
2023-02-15T19:20:19.925Z,16.43
2023-02-15T19:23:23.642Z,16.44
2023-02-15T19:26:36.290Z,16.46
2023-02-15T19:29:44.853Z,16.48
2023-02-15T19:32:46.518Z,16.49
2023-02-15T19:35:53.983Z,16.52
2023-02-15T19:38:55.879Z,16.53
2023-02-15T19:41:57.367Z,16.57
2023-02-15T19:44:58.808Z,16.60
2023-02-15T19:48:03.039Z,16.62
2023-02-15T19:51:04.707Z,16.63
2023-02-15T19:54:31.001Z,16.66
2023-02-15T19:57:32.506Z,16.66
2023-02-15T20:00:34.449Z,16.68
2023-02-15T20:03:36.262Z,16.70
2023-02-15T20:06:37.738Z,16.71
2023-02-15T20:09:40.818Z,16.72
2023-02-15T20:12:42.701Z,16.74
2023-02-15T20:15:49.883Z,16.75
2023-02-15T20:18:51.384Z,16.76
2023-02-15T20:21:54.803Z,16.77
2023-02-15T20:24:56.898Z,16.77
2023-02-15T20:27:59.449Z,16.78
2023-02-15T20:31:01.249Z,16.78
2023-02-15T20:34:02.788Z,16.79
2023-02-15T20:37:05.118Z,16.80
2023-02-15T20:40:18.586Z,16.81
2023-02-15T20:43:20.027Z,16.81
2023-02-15T20:46:21.465Z,16.81
2023-02-15T20:49:24.984Z,16.81
2023-02-15T20:52:26.606Z,16.80
2023-02-15T20:55:31.935Z,16.82
2023-02-15T20:58:34.378Z,16.82
2023-02-15T21:01:35.870Z,16.82
2023-02-15T21:04:37.459Z,16.82
2023-02-15T21:07:38.908Z,16.82
2023-02-15T21:10:45.127Z,16.83
2023-02-15T21:13:47.673Z,16.84
2023-02-15T21:16:50.322Z,16.82
2023-02-15T21:19:51.796Z,16.83
2023-02-15T21:22:54.317Z,16.84
2023-02-15T21:25:56.512Z,16.85
2023-02-15T21:28:57.999Z,16.85
2023-02-15T21:32:00.347Z,16.84
2023-02-15T21:35:01.937Z,16.85
2023-02-15T21:38:04.211Z,16.86
2023-02-15T21:41:25.689Z,16.87
2023-02-15T21:44:45.638Z,16.88
2023-02-15T21:47:52.829Z,16.88
2023-02-15T21:51:13.474Z,16.88
2023-02-15T21:54:17.055Z,16.88
2023-02-15T21:57:21.049Z,16.89
2023-02-15T22:00:25.010Z,16.90
2023-02-15T22:03:31.894Z,16.88
2023-02-15T22:06:33.352Z,16.88
2023-02-15T22:09:34.901Z,16.88
2023-02-15T22:12:37.453Z,16.89
2023-02-15T22:15:39.130Z,16.88
2023-02-15T22:18:40.666Z,16.87
2023-02-15T22:21:42.311Z,16.87
2023-02-15T22:24:44.787Z,16.88
2023-02-15T22:27:47.954Z,16.88
2023-02-15T22:30:49.441Z,16.88
2023-02-15T22:33:51.207Z,16.88
2023-02-15T22:36:53.594Z,16.87
2023-02-15T22:39:55.047Z,16.87
2023-02-15T22:42:59.714Z,16.86
2023-02-15T22:46:05.061Z,16.86
2023-02-15T22:49:06.547Z,16.85
2023-02-15T22:52:13.555Z,16.84
2023-02-15T22:55:20.686Z,16.83
2023-02-15T22:58:26.585Z,16.81
2023-02-15T23:01:33.727Z,16.79
2023-02-15T23:04:35.188Z,16.77
2023-02-15T23:07:37.163Z,16.73
2023-02-15T23:10:40.725Z,16.73
2023-02-15T23:13:42.544Z,16.70
2023-02-15T23:16:44.070Z,16.68
2023-02-15T23:19:45.691Z,16.67
2023-02-15T23:22:47.183Z,16.65
2023-02-15T23:25:48.630Z,16.63
2023-02-15T23:28:51.681Z,16.62
2023-02-15T23:31:53.985Z,16.61
2023-02-15T23:34:55.538Z,16.59
2023-02-15T23:37:56.984Z,16.57
2023-02-15T23:41:35.253Z,16.56
2023-02-15T23:44:37.441Z,16.55
2023-02-15T23:47:57.523Z,16.53
2023-02-15T23:50:59.718Z,16.50
2023-02-15T23:54:01.258Z,16.49
2023-02-15T23:57:03.268Z,16.47
